sensor_id;sensor_type;location;lat;lon;timestamp;temperature;humidity
43999;DHT22;51319;52.162;5.302;2023-09-30T00:02:27;12.10;99.90
43999;DHT22;51319;52.162;5.302;2023-09-30T00:04:54;12.10;99.90
43999;DHT22;51319;52.162;5.302;2023-09-30T00:07:21;12.10;99.90
43999;DHT22;51319;52.162;5.302;2023-09-30T00:09:48;12.10;99.90
43999;DHT22;51319;52.162;5.302;2023-09-30T00:12:16;12.20;99.90
43999;DHT22;51319;52.162;5.302;2023-09-30T00:14:43;12.20;99.90
43999;DHT22;51319;52.162;5.302;2023-09-30T00:17:10;12.30;99.90
43999;DHT22;51319;52.162;5.302;2023-09-30T00:19:36;12.20;99.90
43999;DHT22;51319;52.162;5.302;2023-09-30T00:22:03;12.20;99.90
43999;DHT22;51319;52.162;5.302;2023-09-30T00:24:31;12.20;99.90
43999;DHT22;51319;52.162;5.302;2023-09-30T00:26:57;12.20;99.90
43999;DHT22;51319;52.162;5.302;2023-09-30T00:29:24;12.20;99.90
43999;DHT22;51319;52.162;5.302;2023-09-30T00:31:53;12.20;99.90
43999;DHT22;51319;52.162;5.302;2023-09-30T00:34:20;12.20;99.90
43999;DHT22;51319;52.162;5.302;2023-09-30T00:36:47;12.10;99.90
43999;DHT22;51319;52.162;5.302;2023-09-30T00:39:14;12.10;99.90
43999;DHT22;51319;52.162;5.302;2023-09-30T00:41:43;12.10;99.90
43999;DHT22;51319;52.162;5.302;2023-09-30T00:44:10;12.10;99.90
43999;DHT22;51319;52.162;5.302;2023-09-30T00:46:39;12.10;99.90
43999;DHT22;51319;52.162;5.302;2023-09-30T00:49:08;12.10;99.90
43999;DHT22;51319;52.162;5.302;2023-09-30T00:51:37;12.10;99.90
43999;DHT22;51319;52.162;5.302;2023-09-30T00:54:04;12.10;99.90
43999;DHT22;51319;52.162;5.302;2023-09-30T00:56:32;12.10;99.90
43999;DHT22;51319;52.162;5.302;2023-09-30T00:59:01;12.10;99.90
43999;DHT22;51319;52.162;5.302;2023-09-30T01:01:28;12.20;99.90
43999;DHT22;51319;52.162;5.302;2023-09-30T01:03:55;12.30;99.90
43999;DHT22;51319;52.162;5.302;2023-09-30T01:06:22;12.20;99.90
43999;DHT22;51319;52.162;5.302;2023-09-30T01:08:49;12.20;99.90
43999;DHT22;51319;52.162;5.302;2023-09-30T01:11:16;12.20;99.90
43999;DHT22;51319;52.162;5.302;2023-09-30T01:13:44;12.10;99.90
43999;DHT22;51319;52.162;5.302;2023-09-30T01:16:11;12.10;99.90
43999;DHT22;51319;52.162;5.302;2023-09-30T01:18:40;12.00;99.90
43999;DHT22;51319;52.162;5.302;2023-09-30T01:21:10;11.90;99.90
43999;DHT22;51319;52.162;5.302;2023-09-30T01:23:38;11.90;99.90
43999;DHT22;51319;52.162;5.302;2023-09-30T01:26:10;11.90;99.90
43999;DHT22;51319;52.162;5.302;2023-09-30T01:28:39;11.80;99.90
43999;DHT22;51319;52.162;5.302;2023-09-30T01:31:06;11.80;99.90
43999;DHT22;51319;52.162;5.302;2023-09-30T01:33:33;11.70;99.90
43999;DHT22;51319;52.162;5.302;2023-09-30T01:36:00;11.70;99.90
43999;DHT22;51319;52.162;5.302;2023-09-30T01:38:27;11.70;99.90
43999;DHT22;51319;52.162;5.302;2023-09-30T01:40:54;11.70;99.90
43999;DHT22;51319;52.162;5.302;2023-09-30T01:43:25;11.70;99.90
43999;DHT22;51319;52.162;5.302;2023-09-30T01:45:52;11.60;99.90
43999;DHT22;51319;52.162;5.302;2023-09-30T01:48:19;11.70;99.90
43999;DHT22;51319;52.162;5.302;2023-09-30T01:50:46;11.70;99.90
43999;DHT22;51319;52.162;5.302;2023-09-30T01:53:15;11.70;99.90
43999;DHT22;51319;52.162;5.302;2023-09-30T01:55:41;11.60;99.90
43999;DHT22;51319;52.162;5.302;2023-09-30T01:58:09;11.60;99.90
43999;DHT22;51319;52.162;5.302;2023-09-30T02:00:38;11.60;99.90
43999;DHT22;51319;52.162;5.302;2023-09-30T02:03:05;11.60;99.90
43999;DHT22;51319;52.162;5.302;2023-09-30T02:05:32;11.60;99.90
43999;DHT22;51319;52.162;5.302;2023-09-30T02:07:59;11.60;99.90
43999;DHT22;51319;52.162;5.302;2023-09-30T02:10:26;11.60;99.90
43999;DHT22;51319;52.162;5.302;2023-09-30T02:12:53;11.60;99.90
43999;DHT22;51319;52.162;5.302;2023-09-30T02:15:20;11.60;99.90
43999;DHT22;51319;52.162;5.302;2023-09-30T02:17:48;11.60;99.90
43999;DHT22;51319;52.162;5.302;2023-09-30T02:20:16;11.50;99.90
43999;DHT22;51319;52.162;5.302;2023-09-30T02:22:46;11.50;99.90
43999;DHT22;51319;52.162;5.302;2023-09-30T02:25:14;11.50;99.90
43999;DHT22;51319;52.162;5.302;2023-09-30T02:27:42;11.50;99.90
43999;DHT22;51319;52.162;5.302;2023-09-30T02:30:09;11.50;99.90
43999;DHT22;51319;52.162;5.302;2023-09-30T02:32:40;11.50;99.90
43999;DHT22;51319;52.162;5.302;2023-09-30T02:35:09;11.60;99.90
43999;DHT22;51319;52.162;5.302;2023-09-30T02:37:40;11.70;99.90
43999;DHT22;51319;52.162;5.302;2023-09-30T02:40:08;11.70;99.90
43999;DHT22;51319;52.162;5.302;2023-09-30T02:42:39;11.70;99.90
43999;DHT22;51319;52.162;5.302;2023-09-30T02:45:06;11.80;99.90
43999;DHT22;51319;52.162;5.302;2023-09-30T02:47:35;11.80;99.90
43999;DHT22;51319;52.162;5.302;2023-09-30T02:50:05;11.90;99.90
43999;DHT22;51319;52.162;5.302;2023-09-30T02:52:33;11.90;99.90
43999;DHT22;51319;52.162;5.302;2023-09-30T02:55:00;12.00;99.90
43999;DHT22;51319;52.162;5.302;2023-09-30T02:57:27;12.00;99.90
43999;DHT22;51319;52.162;5.302;2023-09-30T02:59:58;12.00;99.90
43999;DHT22;51319;52.162;5.302;2023-09-30T03:02:28;12.00;99.90
43999;DHT22;51319;52.162;5.302;2023-09-30T03:04:55;12.10;99.90
43999;DHT22;51319;52.162;5.302;2023-09-30T03:07:25;12.10;99.90
43999;DHT22;51319;52.162;5.302;2023-09-30T03:09:51;12.10;99.90
43999;DHT22;51319;52.162;5.302;2023-09-30T03:12:19;12.10;99.90
43999;DHT22;51319;52.162;5.302;2023-09-30T03:14:47;12.10;99.90
43999;DHT22;51319;52.162;5.302;2023-09-30T03:17:14;12.10;99.90
43999;DHT22;51319;52.162;5.302;2023-09-30T03:19:41;12.10;99.90
43999;DHT22;51319;52.162;5.302;2023-09-30T03:22:08;12.10;99.90
43999;DHT22;51319;52.162;5.302;2023-09-30T03:24:39;12.10;99.90
43999;DHT22;51319;52.162;5.302;2023-09-30T03:27:07;12.10;99.90
43999;DHT22;51319;52.162;5.302;2023-09-30T03:29:37;12.10;99.90
43999;DHT22;51319;52.162;5.302;2023-09-30T03:32:05;12.20;99.90
43999;DHT22;51319;52.162;5.302;2023-09-30T03:34:34;12.20;99.90
43999;DHT22;51319;52.162;5.302;2023-09-30T03:37:03;12.20;99.90
43999;DHT22;51319;52.162;5.302;2023-09-30T03:39:33;12.20;99.90
43999;DHT22;51319;52.162;5.302;2023-09-30T03:42:00;12.20;99.90
43999;DHT22;51319;52.162;5.302;2023-09-30T03:44:27;12.20;99.90
43999;DHT22;51319;52.162;5.302;2023-09-30T03:46:55;12.20;99.90
43999;DHT22;51319;52.162;5.302;2023-09-30T03:49:23;12.20;99.90
43999;DHT22;51319;52.162;5.302;2023-09-30T03:51:51;12.30;99.90
43999;DHT22;51319;52.162;5.302;2023-09-30T03:54:20;12.30;99.90
43999;DHT22;51319;52.162;5.302;2023-09-30T03:56:48;12.30;99.90
43999;DHT22;51319;52.162;5.302;2023-09-30T03:59:15;12.30;99.90
43999;DHT22;51319;52.162;5.302;2023-09-30T04:01:42;12.30;99.90
43999;DHT22;51319;52.162;5.302;2023-09-30T04:04:11;12.30;99.90
43999;DHT22;51319;52.162;5.302;2023-09-30T04:06:38;12.20;99.90
43999;DHT22;51319;52.162;5.302;2023-09-30T04:09:06;12.30;99.90
43999;DHT22;51319;52.162;5.302;2023-09-30T04:11:39;12.20;99.90
43999;DHT22;51319;52.162;5.302;2023-09-30T04:14:06;12.20;99.90
43999;DHT22;51319;52.162;5.302;2023-09-30T04:16:35;12.20;99.90
43999;DHT22;51319;52.162;5.302;2023-09-30T04:19:04;12.20;99.90
43999;DHT22;51319;52.162;5.302;2023-09-30T04:21:31;12.20;99.90
43999;DHT22;51319;52.162;5.302;2023-09-30T04:24:01;12.20;99.90
43999;DHT22;51319;52.162;5.302;2023-09-30T04:26:28;12.20;99.90
43999;DHT22;51319;52.162;5.302;2023-09-30T04:28:55;12.20;99.90
43999;DHT22;51319;52.162;5.302;2023-09-30T04:31:22;12.20;99.90
43999;DHT22;51319;52.162;5.302;2023-09-30T04:33:50;12.20;99.90
43999;DHT22;51319;52.162;5.302;2023-09-30T04:36:19;12.20;99.90
43999;DHT22;51319;52.162;5.302;2023-09-30T04:38:46;12.20;99.90
43999;DHT22;51319;52.162;5.302;2023-09-30T04:41:14;12.20;99.90
43999;DHT22;51319;52.162;5.302;2023-09-30T04:43:42;12.30;99.90
43999;DHT22;51319;52.162;5.302;2023-09-30T04:46:10;12.30;99.90
43999;DHT22;51319;52.162;5.302;2023-09-30T04:48:40;12.30;99.90
43999;DHT22;51319;52.162;5.302;2023-09-30T04:51:08;12.30;99.90
43999;DHT22;51319;52.162;5.302;2023-09-30T04:53:37;12.30;99.90
43999;DHT22;51319;52.162;5.302;2023-09-30T04:56:04;12.30;99.90
43999;DHT22;51319;52.162;5.302;2023-09-30T04:58:31;12.30;99.90
43999;DHT22;51319;52.162;5.302;2023-09-30T05:00:58;12.30;99.90
43999;DHT22;51319;52.162;5.302;2023-09-30T05:03:25;12.30;99.90
43999;DHT22;51319;52.162;5.302;2023-09-30T05:05:53;12.20;99.90
43999;DHT22;51319;52.162;5.302;2023-09-30T05:08:23;12.20;99.90
43999;DHT22;51319;52.162;5.302;2023-09-30T05:10:51;12.20;99.90
43999;DHT22;51319;52.162;5.302;2023-09-30T05:13:18;12.20;99.90
43999;DHT22;51319;52.162;5.302;2023-09-30T05:15:45;12.10;99.90
43999;DHT22;51319;52.162;5.302;2023-09-30T05:18:13;12.10;99.90
43999;DHT22;51319;52.162;5.302;2023-09-30T05:20:40;12.10;99.90
43999;DHT22;51319;52.162;5.302;2023-09-30T05:23:07;12.00;99.90
43999;DHT22;51319;52.162;5.302;2023-09-30T05:25:34;12.00;99.90
43999;DHT22;51319;52.162;5.302;2023-09-30T05:28:03;12.00;99.90
43999;DHT22;51319;52.162;5.302;2023-09-30T05:30:30;11.90;99.90
43999;DHT22;51319;52.162;5.302;2023-09-30T05:32:57;11.90;99.90
43999;DHT22;51319;52.162;5.302;2023-09-30T05:35:25;11.90;99.90
43999;DHT22;51319;52.162;5.302;2023-09-30T05:37:52;11.90;99.90
43999;DHT22;51319;52.162;5.302;2023-09-30T05:40:20;11.80;99.90
43999;DHT22;51319;52.162;5.302;2023-09-30T05:42:54;11.80;99.90
43999;DHT22;51319;52.162;5.302;2023-09-30T05:45:22;11.80;99.90
43999;DHT22;51319;52.162;5.302;2023-09-30T05:47:50;11.80;99.90
43999;DHT22;51319;52.162;5.302;2023-09-30T05:50:20;11.70;99.90
43999;DHT22;51319;52.162;5.302;2023-09-30T05:55:25;11.70;99.90
43999;DHT22;51319;52.162;5.302;2023-09-30T05:57:54;11.70;99.90
43999;DHT22;51319;52.162;5.302;2023-09-30T06:00:22;11.70;99.90
43999;DHT22;51319;52.162;5.302;2023-09-30T06:02:50;11.70;99.90
43999;DHT22;51319;52.162;5.302;2023-09-30T06:05:18;11.70;99.90
43999;DHT22;51319;52.162;5.302;2023-09-30T06:07:51;11.70;99.90
43999;DHT22;51319;52.162;5.302;2023-09-30T06:10:18;11.70;99.90
43999;DHT22;51319;52.162;5.302;2023-09-30T06:12:50;11.70;99.90
43999;DHT22;51319;52.162;5.302;2023-09-30T06:15:23;11.80;99.90
43999;DHT22;51319;52.162;5.302;2023-09-30T06:17:53;11.80;99.90
43999;DHT22;51319;52.162;5.302;2023-09-30T06:20:21;11.90;99.90
43999;DHT22;51319;52.162;5.302;2023-09-30T06:22:49;11.90;99.90
43999;DHT22;51319;52.162;5.302;2023-09-30T06:25:17;12.00;99.90
43999;DHT22;51319;52.162;5.302;2023-09-30T06:27:45;12.00;99.90
43999;DHT22;51319;52.162;5.302;2023-09-30T06:30:13;12.10;99.90
43999;DHT22;51319;52.162;5.302;2023-09-30T06:32:40;12.10;99.90
43999;DHT22;51319;52.162;5.302;2023-09-30T06:35:08;12.20;99.90
43999;DHT22;51319;52.162;5.302;2023-09-30T06:37:38;12.30;99.90
43999;DHT22;51319;52.162;5.302;2023-09-30T06:40:07;12.30;99.90
43999;DHT22;51319;52.162;5.302;2023-09-30T06:42:35;12.30;99.90
43999;DHT22;51319;52.162;5.302;2023-09-30T06:45:03;12.40;99.90
43999;DHT22;51319;52.162;5.302;2023-09-30T06:47:33;12.40;99.90
43999;DHT22;51319;52.162;5.302;2023-09-30T06:50:01;12.50;99.90
43999;DHT22;51319;52.162;5.302;2023-09-30T06:52:39;12.60;99.90
43999;DHT22;51319;52.162;5.302;2023-09-30T06:55:07;12.60;99.90
43999;DHT22;51319;52.162;5.302;2023-09-30T06:57:35;12.70;99.90
43999;DHT22;51319;52.162;5.302;2023-09-30T07:00:07;12.80;99.90
43999;DHT22;51319;52.162;5.302;2023-09-30T07:02:39;12.90;99.90
43999;DHT22;51319;52.162;5.302;2023-09-30T07:05:08;13.00;99.90
43999;DHT22;51319;52.162;5.302;2023-09-30T07:07:35;13.10;99.90
43999;DHT22;51319;52.162;5.302;2023-09-30T07:10:05;13.20;99.90
43999;DHT22;51319;52.162;5.302;2023-09-30T07:12:32;13.40;99.90
43999;DHT22;51319;52.162;5.302;2023-09-30T07:15:03;13.50;99.90
43999;DHT22;51319;52.162;5.302;2023-09-30T07:17:32;13.60;99.90
43999;DHT22;51319;52.162;5.302;2023-09-30T07:20:01;13.70;99.90
43999;DHT22;51319;52.162;5.302;2023-09-30T07:22:28;13.80;99.90
43999;DHT22;51319;52.162;5.302;2023-09-30T07:24:58;13.90;99.90
43999;DHT22;51319;52.162;5.302;2023-09-30T07:27:25;14.00;99.90
43999;DHT22;51319;52.162;5.302;2023-09-30T07:29:54;14.00;99.90
43999;DHT22;51319;52.162;5.302;2023-09-30T07:32:21;14.20;99.90
43999;DHT22;51319;52.162;5.302;2023-09-30T07:34:51;14.30;99.90
43999;DHT22;51319;52.162;5.302;2023-09-30T07:37:19;15.00;99.90
43999;DHT22;51319;52.162;5.302;2023-09-30T07:39:47;16.30;99.90
43999;DHT22;51319;52.162;5.302;2023-09-30T07:42:14;17.60;99.90
43999;DHT22;51319;52.162;5.302;2023-09-30T07:44:41;18.80;99.70
43999;DHT22;51319;52.162;5.302;2023-09-30T07:47:08;19.80;96.20
43999;DHT22;51319;52.162;5.302;2023-09-30T07:49:38;20.60;93.00
43999;DHT22;51319;52.162;5.302;2023-09-30T07:52:05;21.30;90.30
43999;DHT22;51319;52.162;5.302;2023-09-30T07:54:32;21.70;85.60
43999;DHT22;51319;52.162;5.302;2023-09-30T07:56:59;22.20;82.20
43999;DHT22;51319;52.162;5.302;2023-09-30T07:59:27;22.60;78.90
43999;DHT22;51319;52.162;5.302;2023-09-30T08:01:54;23.20;76.10
43999;DHT22;51319;52.162;5.302;2023-09-30T08:04:21;23.70;73.50
43999;DHT22;51319;52.162;5.302;2023-09-30T08:06:49;24.00;71.30
43999;DHT22;51319;52.162;5.302;2023-09-30T08:09:17;24.40;70.00
43999;DHT22;51319;52.162;5.302;2023-09-30T08:11:45;24.70;68.10
43999;DHT22;51319;52.162;5.302;2023-09-30T08:14:12;25.10;66.80
43999;DHT22;51319;52.162;5.302;2023-09-30T08:16:39;25.70;65.40
43999;DHT22;51319;52.162;5.302;2023-09-30T08:19:07;26.10;63.80
43999;DHT22;51319;52.162;5.302;2023-09-30T08:21:34;26.50;62.20
43999;DHT22;51319;52.162;5.302;2023-09-30T08:24:02;26.90;60.70
43999;DHT22;51319;52.162;5.302;2023-09-30T08:26:29;27.30;59.50
43999;DHT22;51319;52.162;5.302;2023-09-30T08:28:56;27.60;58.60
43999;DHT22;51319;52.162;5.302;2023-09-30T08:31:24;27.90;57.30
43999;DHT22;51319;52.162;5.302;2023-09-30T08:33:51;28.00;56.70
43999;DHT22;51319;52.162;5.302;2023-09-30T08:36:18;28.20;56.40
43999;DHT22;51319;52.162;5.302;2023-09-30T08:38:46;28.30;55.50
43999;DHT22;51319;52.162;5.302;2023-09-30T08:41:33;28.70;54.70
43999;DHT22;51319;52.162;5.302;2023-09-30T08:44:02;29.20;54.00
43999;DHT22;51319;52.162;5.302;2023-09-30T08:46:34;29.90;53.30
43999;DHT22;51319;52.162;5.302;2023-09-30T08:49:03;30.20;51.90
43999;DHT22;51319;52.162;5.302;2023-09-30T08:51:31;30.60;50.90
43999;DHT22;51319;52.162;5.302;2023-09-30T08:54:00;30.80;50.30
43999;DHT22;51319;52.162;5.302;2023-09-30T08:56:29;31.20;49.80
43999;DHT22;51319;52.162;5.302;2023-09-30T08:58:58;30.90;49.50
43999;DHT22;51319;52.162;5.302;2023-09-30T09:01:29;29.70;50.10
43999;DHT22;51319;52.162;5.302;2023-09-30T09:03:57;29.60;51.50
43999;DHT22;51319;52.162;5.302;2023-09-30T09:06:25;29.60;51.80
43999;DHT22;51319;52.162;5.302;2023-09-30T09:08:53;29.40;51.00
43999;DHT22;51319;52.162;5.302;2023-09-30T09:11:20;28.80;52.00
43999;DHT22;51319;52.162;5.302;2023-09-30T09:13:51;29.60;52.40
43999;DHT22;51319;52.162;5.302;2023-09-30T09:16:23;30.50;51.30
43999;DHT22;51319;52.162;5.302;2023-09-30T09:18:50;31.20;49.90
43999;DHT22;51319;52.162;5.302;2023-09-30T09:21:20;30.30;49.50
43999;DHT22;51319;52.162;5.302;2023-09-30T09:23:50;30.90;50.00
43999;DHT22;51319;52.162;5.302;2023-09-30T09:26:26;30.60;48.70
43999;DHT22;51319;52.162;5.302;2023-09-30T09:29:01;29.70;49.60
43999;DHT22;51319;52.162;5.302;2023-09-30T09:31:32;28.70;50.40
43999;DHT22;51319;52.162;5.302;2023-09-30T09:34:02;28.60;51.50
43999;DHT22;51319;52.162;5.302;2023-09-30T09:36:43;28.30;52.20
43999;DHT22;51319;52.162;5.302;2023-09-30T09:39:11;28.70;51.90
43999;DHT22;51319;52.162;5.302;2023-09-30T09:41:53;29.10;51.20
43999;DHT22;51319;52.162;5.302;2023-09-30T09:44:22;29.90;50.70
43999;DHT22;51319;52.162;5.302;2023-09-30T09:46:50;30.40;49.80
43999;DHT22;51319;52.162;5.302;2023-09-30T09:49:17;30.70;49.20
43999;DHT22;51319;52.162;5.302;2023-09-30T09:51:46;30.70;49.00
43999;DHT22;51319;52.162;5.302;2023-09-30T09:54:15;31.30;48.70
43999;DHT22;51319;52.162;5.302;2023-09-30T09:56:46;31.50;47.10
43999;DHT22;51319;52.162;5.302;2023-09-30T09:59:13;32.20;47.00
43999;DHT22;51319;52.162;5.302;2023-09-30T10:01:41;32.30;46.70
43999;DHT22;51319;52.162;5.302;2023-09-30T10:04:12;31.10;46.90
43999;DHT22;51319;52.162;5.302;2023-09-30T10:09:18;30.10;49.00
43999;DHT22;51319;52.162;5.302;2023-09-30T10:11:47;30.90;48.10
43999;DHT22;51319;52.162;5.302;2023-09-30T10:14:40;30.90;47.20
43999;DHT22;51319;52.162;5.302;2023-09-30T10:17:07;31.10;47.20
43999;DHT22;51319;52.162;5.302;2023-09-30T10:19:35;31.90;46.20
43999;DHT22;51319;52.162;5.302;2023-09-30T10:24:58;34.10;43.80
43999;DHT22;51319;52.162;5.302;2023-09-30T10:37:47;36.40;40.20
43999;DHT22;51319;52.162;5.302;2023-09-30T10:40:40;36.50;38.70
43999;DHT22;51319;52.162;5.302;2023-09-30T10:43:40;36.90;39.60
43999;DHT22;51319;52.162;5.302;2023-09-30T10:48:53;34.80;39.90
43999;DHT22;51319;52.162;5.302;2023-09-30T10:51:21;35.10;40.50
43999;DHT22;51319;52.162;5.302;2023-09-30T10:53:52;35.60;39.10
43999;DHT22;51319;52.162;5.302;2023-09-30T10:56:21;36.00;38.60
43999;DHT22;51319;52.162;5.302;2023-09-30T10:58:53;36.30;38.40
43999;DHT22;51319;52.162;5.302;2023-09-30T11:01:22;35.90;38.20
43999;DHT22;51319;52.162;5.302;2023-09-30T11:03:50;35.20;38.30
43999;DHT22;51319;52.162;5.302;2023-09-30T11:06:24;35.10;39.70
43999;DHT22;51319;52.162;5.302;2023-09-30T11:09:00;34.70;39.40
43999;DHT22;51319;52.162;5.302;2023-09-30T11:14:17;34.20;39.30
43999;DHT22;51319;52.162;5.302;2023-09-30T11:16:44;33.50;39.60
43999;DHT22;51319;52.162;5.302;2023-09-30T11:19:12;33.40;40.10
43999;DHT22;51319;52.162;5.302;2023-09-30T11:21:40;33.20;39.90
43999;DHT22;51319;52.162;5.302;2023-09-30T11:24:07;33.70;40.10
43999;DHT22;51319;52.162;5.302;2023-09-30T11:26:34;34.10;38.90
43999;DHT22;51319;52.162;5.302;2023-09-30T11:31:42;33.70;38.20
43999;DHT22;51319;52.162;5.302;2023-09-30T11:34:10;32.30;39.30
43999;DHT22;51319;52.162;5.302;2023-09-30T11:36:52;31.00;40.80
43999;DHT22;51319;52.162;5.302;2023-09-30T11:39:30;30.20;42.10
43999;DHT22;51319;52.162;5.302;2023-09-30T11:41:59;29.40;43.20
43999;DHT22;51319;52.162;5.302;2023-09-30T11:44:28;28.60;45.00
43999;DHT22;51319;52.162;5.302;2023-09-30T11:47:02;28.00;45.30
43999;DHT22;51319;52.162;5.302;2023-09-30T11:49:39;27.50;46.10
43999;DHT22;51319;52.162;5.302;2023-09-30T11:52:08;26.90;46.50
43999;DHT22;51319;52.162;5.302;2023-09-30T11:54:42;26.30;48.10
43999;DHT22;51319;52.162;5.302;2023-09-30T11:57:12;25.90;49.00
43999;DHT22;51319;52.162;5.302;2023-09-30T11:59:43;25.40;50.10
43999;DHT22;51319;52.162;5.302;2023-09-30T12:02:14;25.10;50.80
43999;DHT22;51319;52.162;5.302;2023-09-30T12:04:43;24.70;51.90
43999;DHT22;51319;52.162;5.302;2023-09-30T12:07:11;24.50;53.50
43999;DHT22;51319;52.162;5.302;2023-09-30T12:09:39;24.30;53.80
43999;DHT22;51319;52.162;5.302;2023-09-30T12:12:08;24.20;53.70
43999;DHT22;51319;52.162;5.302;2023-09-30T12:14:40;24.00;54.30
43999;DHT22;51319;52.162;5.302;2023-09-30T12:17:07;23.90;54.30
43999;DHT22;51319;52.162;5.302;2023-09-30T12:19:39;23.70;54.80
43999;DHT22;51319;52.162;5.302;2023-09-30T12:22:08;23.50;55.20
43999;DHT22;51319;52.162;5.302;2023-09-30T12:24:36;23.30;55.60
43999;DHT22;51319;52.162;5.302;2023-09-30T12:27:03;23.20;56.40
43999;DHT22;51319;52.162;5.302;2023-09-30T12:29:31;23.10;56.60
43999;DHT22;51319;52.162;5.302;2023-09-30T12:31:59;23.10;56.80
43999;DHT22;51319;52.162;5.302;2023-09-30T12:34:28;22.90;57.10
43999;DHT22;51319;52.162;5.302;2023-09-30T12:36:55;22.80;57.50
43999;DHT22;51319;52.162;5.302;2023-09-30T12:39:26;22.60;57.90
43999;DHT22;51319;52.162;5.302;2023-09-30T12:41:57;22.50;58.30
43999;DHT22;51319;52.162;5.302;2023-09-30T12:44:24;22.30;57.90
43999;DHT22;51319;52.162;5.302;2023-09-30T12:46:51;22.20;58.80
43999;DHT22;51319;52.162;5.302;2023-09-30T12:49:18;22.10;59.70
43999;DHT22;51319;52.162;5.302;2023-09-30T12:51:45;22.10;60.00
43999;DHT22;51319;52.162;5.302;2023-09-30T12:54:13;22.00;60.20
43999;DHT22;51319;52.162;5.302;2023-09-30T12:56:41;21.90;60.20
43999;DHT22;51319;52.162;5.302;2023-09-30T12:59:09;21.80;60.50
43999;DHT22;51319;52.162;5.302;2023-09-30T13:01:36;21.80;60.80
43999;DHT22;51319;52.162;5.302;2023-09-30T13:04:03;21.80;61.40
43999;DHT22;51319;52.162;5.302;2023-09-30T13:06:35;22.00;62.30
43999;DHT22;51319;52.162;5.302;2023-09-30T13:09:03;22.20;62.30
43999;DHT22;51319;52.162;5.302;2023-09-30T13:11:31;22.60;61.40
43999;DHT22;51319;52.162;5.302;2023-09-30T13:14:02;22.70;60.20
43999;DHT22;51319;52.162;5.302;2023-09-30T13:16:30;22.90;60.40
43999;DHT22;51319;52.162;5.302;2023-09-30T13:18:57;23.00;60.00
43999;DHT22;51319;52.162;5.302;2023-09-30T13:21:26;23.00;59.70
43999;DHT22;51319;52.162;5.302;2023-09-30T13:23:56;23.10;59.70
43999;DHT22;51319;52.162;5.302;2023-09-30T13:26:23;23.10;60.30
43999;DHT22;51319;52.162;5.302;2023-09-30T13:28:50;23.10;59.80
43999;DHT22;51319;52.162;5.302;2023-09-30T13:31:17;23.00;59.00
43999;DHT22;51319;52.162;5.302;2023-09-30T13:33:44;23.10;59.30
43999;DHT22;51319;52.162;5.302;2023-09-30T13:36:11;23.20;58.30
43999;DHT22;51319;52.162;5.302;2023-09-30T13:38:38;23.20;58.00
43999;DHT22;51319;52.162;5.302;2023-09-30T13:41:05;23.20;58.40
43999;DHT22;51319;52.162;5.302;2023-09-30T13:43:32;23.30;58.70
43999;DHT22;51319;52.162;5.302;2023-09-30T13:46:04;23.30;58.80
43999;DHT22;51319;52.162;5.302;2023-09-30T13:48:34;23.30;58.40
43999;DHT22;51319;52.162;5.302;2023-09-30T13:51:06;23.20;57.90
43999;DHT22;51319;52.162;5.302;2023-09-30T13:53:33;23.30;56.10
43999;DHT22;51319;52.162;5.302;2023-09-30T13:56:00;23.40;56.40
43999;DHT22;51319;52.162;5.302;2023-09-30T13:58:27;23.50;57.20
43999;DHT22;51319;52.162;5.302;2023-09-30T14:00:54;23.70;56.10
43999;DHT22;51319;52.162;5.302;2023-09-30T14:03:23;23.60;55.90
43999;DHT22;51319;52.162;5.302;2023-09-30T14:05:53;23.50;55.20
43999;DHT22;51319;52.162;5.302;2023-09-30T14:08:20;23.40;55.90
43999;DHT22;51319;52.162;5.302;2023-09-30T14:10:47;23.20;56.40
43999;DHT22;51319;52.162;5.302;2023-09-30T14:13:16;23.20;56.20
43999;DHT22;51319;52.162;5.302;2023-09-30T14:15:45;23.40;56.10
43999;DHT22;51319;52.162;5.302;2023-09-30T14:18:14;23.70;55.80
43999;DHT22;51319;52.162;5.302;2023-09-30T14:20:42;23.90;55.40
43999;DHT22;51319;52.162;5.302;2023-09-30T14:23:09;24.20;55.20
43999;DHT22;51319;52.162;5.302;2023-09-30T14:25:36;24.40;54.40
43999;DHT22;51319;52.162;5.302;2023-09-30T14:28:03;24.60;53.10
43999;DHT22;51319;52.162;5.302;2023-09-30T14:30:31;24.60;51.60
43999;DHT22;51319;52.162;5.302;2023-09-30T14:32:59;24.60;51.50
43999;DHT22;51319;52.162;5.302;2023-09-30T14:35:26;24.40;51.90
43999;DHT22;51319;52.162;5.302;2023-09-30T14:37:53;24.30;51.60
43999;DHT22;51319;52.162;5.302;2023-09-30T14:40:21;24.00;52.00
43999;DHT22;51319;52.162;5.302;2023-09-30T14:42:48;23.70;53.00
43999;DHT22;51319;52.162;5.302;2023-09-30T14:45:15;23.50;53.50
43999;DHT22;51319;52.162;5.302;2023-09-30T14:47:43;23.30;54.50
43999;DHT22;51319;52.162;5.302;2023-09-30T14:50:10;23.20;55.80
43999;DHT22;51319;52.162;5.302;2023-09-30T14:52:38;23.20;55.80
43999;DHT22;51319;52.162;5.302;2023-09-30T14:55:05;23.20;54.80
43999;DHT22;51319;52.162;5.302;2023-09-30T14:57:32;23.10;54.80
43999;DHT22;51319;52.162;5.302;2023-09-30T15:00:00;23.00;55.40
43999;DHT22;51319;52.162;5.302;2023-09-30T15:02:27;22.90;56.10
43999;DHT22;51319;52.162;5.302;2023-09-30T15:04:54;22.90;56.30
43999;DHT22;51319;52.162;5.302;2023-09-30T15:07:22;22.80;56.60
43999;DHT22;51319;52.162;5.302;2023-09-30T15:09:58;22.70;56.10
43999;DHT22;51319;52.162;5.302;2023-09-30T15:12:25;22.60;56.10
43999;DHT22;51319;52.162;5.302;2023-09-30T15:14:52;22.50;55.90
43999;DHT22;51319;52.162;5.302;2023-09-30T15:17:19;22.50;56.50
43999;DHT22;51319;52.162;5.302;2023-09-30T15:19:46;22.40;57.00
43999;DHT22;51319;52.162;5.302;2023-09-30T15:22:13;22.30;57.00
43999;DHT22;51319;52.162;5.302;2023-09-30T15:24:41;22.10;57.00
43999;DHT22;51319;52.162;5.302;2023-09-30T15:29:53;21.80;57.90
43999;DHT22;51319;52.162;5.302;2023-09-30T15:32:21;21.60;58.50
43999;DHT22;51319;52.162;5.302;2023-09-30T15:34:48;21.50;59.80
43999;DHT22;51319;52.162;5.302;2023-09-30T15:37:15;21.40;60.30
43999;DHT22;51319;52.162;5.302;2023-09-30T15:39:42;21.30;61.10
43999;DHT22;51319;52.162;5.302;2023-09-30T15:42:09;21.20;61.50
43999;DHT22;51319;52.162;5.302;2023-09-30T15:44:38;21.10;61.60
43999;DHT22;51319;52.162;5.302;2023-09-30T15:47:06;21.10;62.00
43999;DHT22;51319;52.162;5.302;2023-09-30T15:49:34;21.10;62.80
43999;DHT22;51319;52.162;5.302;2023-09-30T15:52:02;21.10;63.50
43999;DHT22;51319;52.162;5.302;2023-09-30T15:54:29;21.10;63.40
43999;DHT22;51319;52.162;5.302;2023-09-30T15:56:56;21.10;63.60
43999;DHT22;51319;52.162;5.302;2023-09-30T15:59:25;21.00;63.60
43999;DHT22;51319;52.162;5.302;2023-09-30T16:01:52;21.00;63.20
43999;DHT22;51319;52.162;5.302;2023-09-30T16:04:19;20.90;63.30
43999;DHT22;51319;52.162;5.302;2023-09-30T16:06:46;20.80;63.80
43999;DHT22;51319;52.162;5.302;2023-09-30T16:09:13;20.70;64.40